createdAt,value
2017-05-02T00:00:58.266Z,1009.43
2017-05-02T00:01:58.244Z,1009.46
2017-05-02T00:02:58.229Z,1009.45
2017-05-02T00:03:58.212Z,1009.42
2017-05-02T00:04:58.191Z,1009.46
2017-05-02T00:05:58.172Z,1009.44
2017-05-02T00:06:58.152Z,1009.44
2017-05-02T00:07:58.134Z,1009.45
2017-05-02T00:08:58.110Z,1009.42
2017-05-02T00:09:58.099Z,1009.41
2017-05-02T00:10:58.072Z,1009.42
2017-05-02T00:11:58.052Z,1009.38
2017-05-02T00:12:58.034Z,1009.39
2017-05-02T00:13:58.016Z,1009.38
2017-05-02T00:14:58.003Z,1009.34
2017-05-02T00:15:57.983Z,1009.37
2017-05-02T00:16:57.958Z,1009.33
2017-05-02T00:17:57.938Z,1009.34
2017-05-02T00:18:57.924Z,1009.33
2017-05-02T00:19:57.901Z,1009.3
2017-05-02T00:20:57.883Z,1009.31
2017-05-02T00:21:57.864Z,1009.31
2017-05-02T00:22:57.849Z,1009.31
2017-05-02T00:23:57.823Z,1009.26
2017-05-02T00:24:57.813Z,1009.25
2017-05-02T00:25:57.785Z,1009.26
2017-05-02T00:26:57.767Z,1009.24
2017-05-02T00:27:57.758Z,1009.21
2017-05-02T00:28:57.729Z,1009.24
2017-05-02T00:29:57.709Z,1009.2
2017-05-02T00:30:57.693Z,1009.2
2017-05-02T00:31:57.670Z,1009.21
2017-05-02T00:32:57.654Z,1009.18
2017-05-02T00:33:57.631Z,1009.2
2017-05-02T00:34:57.615Z,1009.18
2017-05-02T00:35:57.594Z,1009.17
2017-05-02T00:36:57.572Z,1009.18
2017-05-02T00:37:57.552Z,1009.16
2017-05-02T00:38:57.532Z,1009.14
2017-05-02T00:39:57.514Z,1009.1
2017-05-02T00:40:57.494Z,1009.09
2017-05-02T00:41:57.479Z,1009.08
2017-05-02T00:42:57.455Z,1009.08
2017-05-02T00:43:57.440Z,1009.07
2017-05-02T00:44:57.422Z,1009.02
2017-05-02T00:45:57.408Z,1009
2017-05-02T00:46:57.384Z,1009.01
2017-05-02T00:47:57.361Z,1008.99
2017-05-02T00:48:57.338Z,1008.98
2017-05-02T00:49:57.323Z,1009
2017-05-02T00:50:57.301Z,1008.99
2017-05-02T00:51:57.283Z,1008.98
2017-05-02T00:52:57.260Z,1008.92
2017-05-02T00:53:57.243Z,1008.98
2017-05-02T00:54:57.223Z,1008.93
2017-05-02T00:55:57.202Z,1008.92
2017-05-02T00:56:57.183Z,1008.92
2017-05-02T00:57:57.172Z,1008.89
2017-05-02T00:58:57.150Z,1008.91
2017-05-02T00:59:57.128Z,1008.86
2017-05-02T01:00:57.110Z,1008.89
2017-05-02T01:01:57.111Z,1008.91
2017-05-02T01:02:57.073Z,1008.89
2017-05-02T01:03:57.048Z,1008.9
2017-05-02T01:04:57.037Z,1008.92
2017-05-02T01:05:57.011Z,1008.89
2017-05-02T01:06:56.992Z,1008.92
2017-05-02T01:07:56.974Z,1008.87
2017-05-02T01:08:56.952Z,1008.91
2017-05-02T01:09:56.932Z,1008.9
2017-05-02T01:10:56.918Z,1008.87
2017-05-02T01:11:56.895Z,1008.9
2017-05-02T01:12:56.880Z,1008.86
2017-05-02T01:13:56.857Z,1008.88
2017-05-02T01:14:56.842Z,1008.87
2017-05-02T01:15:56.819Z,1008.88
2017-05-02T01:16:56.802Z,1008.9
2017-05-02T01:17:56.776Z,1008.87
2017-05-02T01:18:56.762Z,1008.89
2017-05-02T01:19:56.744Z,1008.86
2017-05-02T01:20:56.718Z,1008.84
2017-05-02T01:21:56.699Z,1008.86
2017-05-02T01:22:56.685Z,1008.87
2017-05-02T01:23:56.659Z,1008.9
2017-05-02T01:24:56.642Z,1008.86
2017-05-02T01:25:56.622Z,1008.86
2017-05-02T01:26:56.603Z,1008.86
2017-05-02T01:27:56.583Z,1008.88
2017-05-02T01:28:56.560Z,1008.88
2017-05-02T01:29:56.560Z,1008.88
2017-05-02T01:30:56.524Z,1008.87
2017-05-02T01:31:56.502Z,1008.9
2017-05-02T01:32:56.482Z,1008.89
2017-05-02T01:33:56.468Z,1008.89
2017-05-02T01:34:56.448Z,1008.88
2017-05-02T01:35:56.429Z,1008.88
2017-05-02T01:36:56.413Z,1008.88
2017-05-02T01:37:56.384Z,1008.87
2017-05-02T01:38:56.372Z,1008.87
2017-05-02T01:39:56.361Z,1008.88
2017-05-02T01:40:56.329Z,1008.9
2017-05-02T01:41:56.308Z,1008.88
2017-05-02T01:42:56.290Z,1008.87
2017-05-02T01:43:56.269Z,1008.9
2017-05-02T01:44:56.254Z,1008.86
2017-05-02T01:45:56.235Z,1008.87
2017-05-02T01:46:56.212Z,1008.89
2017-05-02T01:47:56.203Z,1008.89
2017-05-02T01:48:56.171Z,1008.9
2017-05-02T01:49:56.152Z,1008.87
2017-05-02T01:50:56.131Z,1008.89
2017-05-02T01:51:56.126Z,1008.87
2017-05-02T01:52:56.112Z,1008.85
2017-05-02T01:53:56.081Z,1008.85
2017-05-02T01:54:56.061Z,1008.87
2017-05-02T01:55:56.044Z,1008.85
2017-05-02T01:56:56.030Z,1008.82
2017-05-02T01:57:56.011Z,1008.81
2017-05-02T01:58:55.982Z,1008.84
2017-05-02T01:59:55.968Z,1008.81
2017-05-02T02:00:55.941Z,1008.8
2017-05-02T02:01:55.921Z,1008.8
2017-05-02T02:02:55.902Z,1008.85
2017-05-02T02:03:55.878Z,1008.87
2017-05-02T02:04:55.857Z,1008.83
2017-05-02T02:05:55.845Z,1008.83
2017-05-02T02:06:55.818Z,1008.84
2017-05-02T02:07:55.801Z,1008.81
2017-05-02T02:08:55.781Z,1008.8
2017-05-02T02:09:55.762Z,1008.81
2017-05-02T02:10:55.742Z,1008.79
2017-05-02T02:11:55.720Z,1008.77
2017-05-02T02:12:55.702Z,1008.79
2017-05-02T02:13:55.684Z,1008.8
2017-05-02T02:14:55.662Z,1008.79
2017-05-02T02:15:55.647Z,1008.81
2017-05-02T02:16:55.652Z,1008.78
2017-05-02T02:17:55.610Z,1008.79
2017-05-02T02:18:55.592Z,1008.78
2017-05-02T02:19:55.571Z,1008.8
2017-05-02T02:20:55.549Z,1008.78
2017-05-02T02:21:55.533Z,1008.81
2017-05-02T02:22:55.513Z,1008.8
2017-05-02T02:23:55.493Z,1008.8
2017-05-02T02:24:55.470Z,1008.79
2017-05-02T02:25:55.454Z,1008.76
2017-05-02T02:26:55.433Z,1008.76
2017-05-02T02:27:55.414Z,1008.77
2017-05-02T02:28:55.394Z,1008.8
2017-05-02T02:29:55.374Z,1008.77
2017-05-02T02:30:55.352Z,1008.76
2017-05-02T02:31:55.332Z,1008.75
2017-05-02T02:32:55.313Z,1008.78
2017-05-02T02:33:55.294Z,1008.69
2017-05-02T02:34:55.274Z,1008.74
2017-05-02T02:35:55.251Z,1008.73
2017-05-02T02:36:55.232Z,1008.7
2017-05-02T02:37:55.217Z,1008.68
2017-05-02T02:38:55.195Z,1008.67
2017-05-02T02:39:55.177Z,1008.64
2017-05-02T02:40:55.162Z,1008.67
2017-05-02T02:41:55.143Z,1008.66
2017-05-02T02:42:55.121Z,1008.66
2017-05-02T02:43:55.105Z,1008.66
2017-05-02T02:44:55.082Z,1008.64
2017-05-02T02:45:55.058Z,1008.63
2017-05-02T02:46:55.039Z,1008.63
2017-05-02T02:47:55.023Z,1008.63
2017-05-02T02:48:54.999Z,1008.61
2017-05-02T02:49:54.984Z,1008.58
2017-05-02T02:50:54.964Z,1008.6
2017-05-02T02:51:54.943Z,1008.57
2017-05-02T02:52:54.932Z,1008.54
2017-05-02T02:53:54.901Z,1008.53
2017-05-02T02:54:54.884Z,1008.52
2017-05-02T02:55:54.865Z,1008.53
2017-05-02T02:56:54.843Z,1008.53
2017-05-02T02:57:54.824Z,1008.53
2017-05-02T02:58:54.810Z,1008.55
2017-05-02T02:59:54.783Z,1008.56
2017-05-02T03:00:54.764Z,1008.6
2017-05-02T03:01:54.743Z,1008.61
2017-05-02T03:02:54.727Z,1008.61
2017-05-02T03:03:54.712Z,1008.63
2017-05-02T03:04:54.693Z,1008.67
2017-05-02T03:05:54.670Z,1008.66
2017-05-02T03:06:54.651Z,1008.63
2017-05-02T03:07:54.634Z,1008.65
2017-05-02T03:08:54.612Z,1008.67
2017-05-02T03:09:54.585Z,1008.6
2017-05-02T03:10:54.566Z,1008.61
2017-05-02T03:11:54.549Z,1008.63
2017-05-02T03:12:54.532Z,1008.66
2017-05-02T03:13:54.506Z,1008.66
2017-05-02T03:14:54.490Z,1008.63
2017-05-02T03:15:54.468Z,1008.57
2017-05-02T03:16:54.449Z,1008.61
2017-05-02T03:17:54.433Z,1008.64
2017-05-02T03:18:54.409Z,1008.62
2017-05-02T03:19:54.389Z,1008.63
2017-05-02T03:20:54.373Z,1008.65
2017-05-02T03:21:54.354Z,1008.66
2017-05-02T03:22:54.333Z,1008.65
2017-05-02T03:23:54.314Z,1008.64
2017-05-02T03:24:54.292Z,1008.62
2017-05-02T03:25:54.275Z,1008.63
2017-05-02T03:26:54.253Z,1008.63
2017-05-02T03:27:54.234Z,1008.63
2017-05-02T03:28:54.214Z,1008.61
2017-05-02T03:29:54.205Z,1008.61
2017-05-02T03:30:54.175Z,1008.62
2017-05-02T03:31:54.160Z,1008.64
2017-05-02T03:32:54.135Z,1008.61
2017-05-02T03:33:54.115Z,1008.62
2017-05-02T03:34:54.104Z,1008.62
2017-05-02T03:35:54.079Z,1008.62
2017-05-02T03:36:54.062Z,1008.61
2017-05-02T03:37:54.044Z,1008.62
2017-05-02T03:38:54.018Z,1008.61
2017-05-02T03:39:53.999Z,1008.62
2017-05-02T03:40:53.976Z,1008.61
2017-05-02T03:41:53.962Z,1008.56
2017-05-02T03:42:53.943Z,1008.59
2017-05-02T03:43:53.924Z,1008.57
2017-05-02T03:44:53.898Z,1008.57
2017-05-02T03:45:53.880Z,1008.6
2017-05-02T03:46:53.860Z,1008.59
2017-05-02T03:47:53.844Z,1008.56
2017-05-02T03:48:53.822Z,1008.62
2017-05-02T03:49:53.802Z,1008.61
2017-05-02T03:50:53.784Z,1008.63
2017-05-02T03:51:53.758Z,1008.62
2017-05-02T03:52:53.743Z,1008.59
2017-05-02T03:53:53.723Z,1008.63
2017-05-02T03:54:53.702Z,1008.63
2017-05-02T03:55:53.683Z,1008.63
2017-05-02T03:56:53.664Z,1008.61
2017-05-02T03:57:53.641Z,1008.6
2017-05-02T03:58:53.622Z,1008.61
2017-05-02T03:59:53.603Z,1008.6
2017-05-02T04:00:53.586Z,1008.59
2017-05-02T04:01:53.562Z,1008.6
2017-05-02T04:02:53.544Z,1008.6
2017-05-02T04:03:53.525Z,1008.62
2017-05-02T04:04:53.503Z,1008.58
2017-05-02T04:05:53.483Z,1008.55
2017-05-02T04:06:53.465Z,1008.58
2017-05-02T04:07:53.450Z,1008.55
2017-05-02T04:08:53.426Z,1008.57
2017-05-02T04:09:53.418Z,1008.56
2017-05-02T04:10:53.386Z,1008.55
2017-05-02T04:11:53.364Z,1008.58
2017-05-02T04:12:53.347Z,1008.57
2017-05-02T04:13:53.328Z,1008.55
2017-05-02T04:14:53.310Z,1008.57
2017-05-02T04:15:53.294Z,1008.52
2017-05-02T04:16:53.269Z,1008.57
2017-05-02T04:17:53.254Z,1008.56
2017-05-02T04:18:53.230Z,1008.57
2017-05-02T04:19:53.216Z,1008.52
2017-05-02T04:20:53.190Z,1008.54
2017-05-02T04:21:53.174Z,1008.55
2017-05-02T04:22:53.152Z,1008.55
2017-05-02T04:23:53.127Z,1008.56
2017-05-02T04:24:53.109Z,1008.54
2017-05-02T04:25:53.088Z,1008.53
2017-05-02T04:26:53.072Z,1008.57
2017-05-02T04:27:53.054Z,1008.56
2017-05-02T04:28:53.031Z,1008.55
2017-05-02T04:29:53.014Z,1008.55
2017-05-02T04:30:52.996Z,1008.57
2017-05-02T04:31:52.970Z,1008.59
2017-05-02T04:32:52.955Z,1008.6
2017-05-02T04:33:52.930Z,1008.58
2017-05-02T04:34:52.914Z,1008.62
2017-05-02T04:35:52.890Z,1008.64
2017-05-02T04:36:52.878Z,1008.65
2017-05-02T04:37:52.856Z,1008.63
2017-05-02T04:38:52.833Z,1008.63
2017-05-02T04:39:52.814Z,1008.64
2017-05-02T04:40:52.792Z,1008.65
2017-05-02T04:41:52.773Z,1008.65
2017-05-02T04:42:52.753Z,1008.63
2017-05-02T04:43:52.731Z,1008.66
2017-05-02T04:44:52.713Z,1008.63
2017-05-02T04:45:52.695Z,1008.64
2017-05-02T04:46:52.674Z,1008.62
2017-05-02T04:47:52.653Z,1008.63
2017-05-02T04:48:52.640Z,1008.66
2017-05-02T04:49:52.612Z,1008.64
2017-05-02T04:50:52.594Z,1008.68
2017-05-02T04:51:52.575Z,1008.71
2017-05-02T04:52:52.554Z,1008.73
2017-05-02T04:53:52.535Z,1008.68
2017-05-02T04:54:52.514Z,1008.72
2017-05-02T04:55:52.495Z,1008.7
2017-05-02T04:56:52.516Z,1008.7
2017-05-02T04:57:52.457Z,1008.71
2017-05-02T04:58:52.437Z,1008.68
2017-05-02T04:59:52.416Z,1008.7
2017-05-02T05:00:52.401Z,1008.7
2017-05-02T05:01:52.376Z,1008.69
2017-05-02T05:02:52.363Z,1008.71
2017-05-02T05:03:52.342Z,1008.69
2017-05-02T05:04:52.322Z,1008.72
2017-05-02T05:05:52.297Z,1008.73
2017-05-02T05:06:52.278Z,1008.73
2017-05-02T05:07:52.259Z,1008.73
2017-05-02T05:08:52.241Z,1008.75
2017-05-02T05:09:52.225Z,1008.77
2017-05-02T05:10:52.202Z,1008.77
2017-05-02T05:11:52.204Z,1008.78
2017-05-02T05:12:52.187Z,1008.76
2017-05-02T05:13:52.150Z,1008.78
2017-05-02T05:14:52.144Z,1008.75
2017-05-02T05:15:52.104Z,1008.76
2017-05-02T05:16:52.079Z,1008.76
2017-05-02T05:17:52.094Z,1008.77
2017-05-02T05:18:52.044Z,1008.76
2017-05-02T05:19:52.025Z,1008.74
2017-05-02T05:20:52.002Z,1008.74
2017-05-02T05:21:51.983Z,1008.74
2017-05-02T05:22:51.962Z,1008.77
2017-05-02T05:23:51.941Z,1008.73
2017-05-02T05:24:51.922Z,1008.74
2017-05-02T05:25:51.903Z,1008.75
2017-05-02T05:26:51.883Z,1008.72
2017-05-02T05:27:51.862Z,1008.7
2017-05-02T05:28:51.849Z,1008.73
2017-05-02T05:29:51.832Z,1008.72
2017-05-02T05:30:51.809Z,1008.73
2017-05-02T05:31:51.785Z,1008.71
2017-05-02T05:32:51.771Z,1008.74
2017-05-02T05:33:51.748Z,1008.75
2017-05-02T05:34:51.731Z,1008.74
2017-05-02T05:35:51.705Z,1008.78
2017-05-02T05:36:51.689Z,1008.74
2017-05-02T05:37:51.667Z,1008.76
2017-05-02T05:38:51.646Z,1008.76
2017-05-02T05:39:51.633Z,1008.74
2017-05-02T05:40:51.614Z,1008.74
2017-05-02T05:41:51.591Z,1008.72
2017-05-02T05:42:51.571Z,1008.68
2017-05-02T05:43:51.549Z,1008.68
2017-05-02T05:44:51.531Z,1008.7
2017-05-02T05:45:51.511Z,1008.7
2017-05-02T05:46:51.494Z,1008.69
2017-05-02T05:47:51.472Z,1008.72
2017-05-02T05:48:51.452Z,1008.73
2017-05-02T05:49:51.432Z,1008.7
2017-05-02T05:50:51.414Z,1008.71
2017-05-02T05:51:51.394Z,1008.7
2017-05-02T05:52:51.376Z,1008.66
2017-05-02T05:53:51.360Z,1008.7
2017-05-02T05:54:51.334Z,1008.64
2017-05-02T05:55:51.320Z,1008.68
2017-05-02T05:56:51.299Z,1008.66
2017-05-02T05:57:51.281Z,1008.67
2017-05-02T05:58:51.256Z,1008.67
2017-05-02T05:59:51.244Z,1008.66
2017-05-02T06:00:51.222Z,1008.68
2017-05-02T06:01:51.198Z,1008.71
2017-05-02T06:02:51.181Z,1008.69
2017-05-02T06:03:51.160Z,1008.71
2017-05-02T06:04:51.143Z,1008.69
2017-05-02T06:05:51.123Z,1008.71
2017-05-02T06:06:51.101Z,1008.68
2017-05-02T06:07:51.084Z,1008.68
2017-05-02T06:08:51.062Z,1008.7
2017-05-02T06:09:51.042Z,1008.68
2017-05-02T06:10:51.024Z,1008.69
2017-05-02T06:11:51.008Z,1008.7
2017-05-02T06:12:50.991Z,1008.68
2017-05-02T06:13:50.967Z,1008.67
2017-05-02T06:14:50.946Z,1008.64
2017-05-02T06:15:50.929Z,1008.61
2017-05-02T06:16:50.917Z,1008.63
2017-05-02T06:17:50.886Z,1008.62
2017-05-02T06:18:50.870Z,1008.61
2017-05-02T06:19:50.846Z,1008.58
2017-05-02T06:20:50.831Z,1008.61
2017-05-02T06:21:50.813Z,1008.59
2017-05-02T06:22:50.790Z,1008.59
2017-05-02T06:23:50.780Z,1008.59
2017-05-02T06:24:50.762Z,1008.6
2017-05-02T06:25:50.734Z,1008.6
2017-05-02T06:26:50.713Z,1008.6
2017-05-02T06:27:50.696Z,1008.61
2017-05-02T06:28:50.673Z,1008.65
2017-05-02T06:29:50.656Z,1008.65
2017-05-02T06:30:50.633Z,1008.65
2017-05-02T06:31:50.614Z,1008.68
2017-05-02T06:32:50.594Z,1008.68
2017-05-02T06:33:50.581Z,1008.74
2017-05-02T06:34:50.557Z,1008.71
2017-05-02T06:35:50.542Z,1008.71
2017-05-02T06:36:50.519Z,1008.73
2017-05-02T06:37:50.506Z,1008.74
2017-05-02T06:38:50.477Z,1008.7
2017-05-02T06:39:50.455Z,1008.72
2017-05-02T06:40:50.445Z,1008.74
2017-05-02T06:41:50.417Z,1008.75
2017-05-02T06:42:50.404Z,1008.71
2017-05-02T06:43:50.376Z,1008.72
2017-05-02T06:44:50.364Z,1008.71
2017-05-02T06:45:50.341Z,1008.74
2017-05-02T06:46:50.322Z,1008.71
2017-05-02T06:47:50.312Z,1008.75
2017-05-02T06:48:50.286Z,1008.73
2017-05-02T06:49:50.262Z,1008.73
2017-05-02T06:50:50.243Z,1008.73
2017-05-02T06:51:50.224Z,1008.76
2017-05-02T06:52:50.202Z,1008.71
2017-05-02T06:53:50.188Z,1008.7
2017-05-02T06:54:50.162Z,1008.72
2017-05-02T06:55:50.153Z,1008.73
2017-05-02T06:56:50.131Z,1008.76
2017-05-02T06:57:50.109Z,1008.75
2017-05-02T06:58:50.093Z,1008.74
2017-05-02T06:59:50.067Z,1008.74
2017-05-02T07:00:50.052Z,1008.72
2017-05-02T07:01:50.034Z,1008.71
2017-05-02T07:02:50.014Z,1008.73
2017-05-02T07:03:49.994Z,1008.74
2017-05-02T07:04:49.969Z,1008.74
2017-05-02T07:05:49.953Z,1008.75
2017-05-02T07:06:49.932Z,1008.78
2017-05-02T07:07:49.912Z,1008.77
2017-05-02T07:08:49.891Z,1008.81
2017-05-02T07:09:49.873Z,1008.78
2017-05-02T07:10:49.851Z,1008.84
2017-05-02T07:11:49.840Z,1008.81
2017-05-02T07:12:49.812Z,1008.81
2017-05-02T07:13:49.797Z,1008.83
2017-05-02T07:14:49.775Z,1008.83
2017-05-02T07:15:49.762Z,1008.79
2017-05-02T07:16:49.738Z,1008.8
2017-05-02T07:17:49.719Z,1008.83
2017-05-02T07:18:49.698Z,1008.8
2017-05-02T07:19:49.689Z,1008.82
2017-05-02T07:20:49.657Z,1008.8
2017-05-02T07:21:49.644Z,1008.85
2017-05-02T07:22:49.622Z,1008.84
2017-05-02T07:23:49.602Z,1008.88
2017-05-02T07:24:49.582Z,1008.88
2017-05-02T07:25:49.574Z,1008.85
2017-05-02T07:26:49.555Z,1008.85
2017-05-02T07:27:49.529Z,1008.89
2017-05-02T07:28:49.505Z,1008.87
2017-05-02T07:29:49.489Z,1008.86
2017-05-02T07:30:49.466Z,1008.93
2017-05-02T07:31:49.452Z,1008.93
2017-05-02T07:32:49.432Z,1008.94
2017-05-02T07:33:49.413Z,1008.91
2017-05-02T07:34:49.391Z,1008.97
2017-05-02T07:35:49.386Z,1008.96
2017-05-02T07:36:49.355Z,1008.97
2017-05-02T07:37:49.336Z,1008.9
2017-05-02T07:38:49.332Z,1008.98
2017-05-02T07:39:49.326Z,1008.96
2017-05-02T07:40:49.283Z,1008.96
2017-05-02T07:41:49.262Z,1008.98
2017-05-02T07:42:49.243Z,1009
2017-05-02T07:43:49.232Z,1009.01
2017-05-02T07:44:49.206Z,1008.98
2017-05-02T07:45:49.192Z,1009.03
2017-05-02T07:46:49.169Z,1008.97
2017-05-02T07:47:49.152Z,1009.03
2017-05-02T07:48:49.133Z,1009.02
2017-05-02T07:49:49.114Z,1009.02
2017-05-02T07:50:49.093Z,1009.03
2017-05-02T07:51:49.082Z,1009.03
2017-05-02T07:52:49.054Z,1009.04
2017-05-02T07:53:49.042Z,1009.07
2017-05-02T07:54:49.040Z,1009.02
2017-05-02T07:55:49.002Z,1009.08
2017-05-02T07:56:48.981Z,1009.05
2017-05-02T07:57:48.963Z,1009.03
2017-05-02T07:58:48.946Z,1009.08
2017-05-02T07:59:48.933Z,1009.09
2017-05-02T08:00:48.911Z,1009.12
2017-05-02T08:01:48.891Z,1009.12
2017-05-02T08:02:48.873Z,1009.14
2017-05-02T08:03:48.854Z,1009.1
2017-05-02T08:04:48.834Z,1009.15
2017-05-02T08:05:48.817Z,1009.09
2017-05-02T08:06:48.800Z,1009.1
2017-05-02T08:07:48.786Z,1009.13
2017-05-02T08:08:48.762Z,1009.11
2017-05-02T08:09:48.741Z,1009.09
2017-05-02T08:10:48.731Z,1009.12
2017-05-02T08:11:48.714Z,1009.12
2017-05-02T08:12:48.690Z,1009.14
2017-05-02T08:13:48.672Z,1009.15
2017-05-02T08:14:48.653Z,1009.16
2017-05-02T08:15:48.632Z,1009.18
2017-05-02T08:16:48.616Z,1009.18
2017-05-02T08:17:48.600Z,1009.19
2017-05-02T08:18:48.581Z,1009.16
2017-05-02T08:19:48.562Z,1009.16
2017-05-02T08:20:48.552Z,1009.18
2017-05-02T08:21:48.522Z,1009.19
2017-05-02T08:22:48.508Z,1009.15
2017-05-02T08:23:48.489Z,1009.19
2017-05-02T08:24:48.474Z,1009.19
2017-05-02T08:25:48.453Z,1009.22
2017-05-02T08:26:48.432Z,1009.2
2017-05-02T08:27:48.425Z,1009.21
2017-05-02T08:28:48.403Z,1009.22
2017-05-02T08:29:48.381Z,1009.25
2017-05-02T08:30:48.363Z,1009.19
2017-05-02T08:31:48.351Z,1009.24
2017-05-02T08:32:48.333Z,1009.23
2017-05-02T08:33:48.349Z,1009.22
2017-05-02T08:34:48.293Z,1009.26
2017-05-02T08:35:48.276Z,1009.28
2017-05-02T08:36:48.252Z,1009.26
2017-05-02T08:37:48.234Z,1009.23
2017-05-02T08:38:48.222Z,1009.24
2017-05-02T08:39:48.203Z,1009.27
2017-05-02T08:40:48.184Z,1009.27
2017-05-02T08:41:48.163Z,1009.24
2017-05-02T08:42:48.154Z,1009.25
2017-05-02T08:43:48.128Z,1009.27
2017-05-02T08:44:48.115Z,1009.23
2017-05-02T08:45:48.096Z,1009.23
2017-05-02T08:46:48.072Z,1009.23
2017-05-02T08:47:48.056Z,1009.23
2017-05-02T08:48:48.043Z,1009.19
2017-05-02T08:49:48.016Z,1009.22
2017-05-02T08:50:48.002Z,1009.25
2017-05-02T08:51:47.985Z,1009.21
2017-05-02T08:52:47.963Z,1009.19
2017-05-02T08:53:47.944Z,1009.24
2017-05-02T08:54:47.929Z,1009.19
2017-05-02T08:55:47.910Z,1009.18
2017-05-02T08:56:47.890Z,1009.2
2017-05-02T08:57:47.875Z,1009.19
2017-05-02T08:58:47.856Z,1009.25
2017-05-02T08:59:47.839Z,1009.25
2017-05-02T09:00:47.819Z,1009.26
2017-05-02T09:01:47.804Z,1009.28
2017-05-02T09:02:47.785Z,1009.27
2017-05-02T09:03:47.772Z,1009.27
2017-05-02T09:04:47.748Z,1009.25
2017-05-02T09:05:47.736Z,1009.26
2017-05-02T09:06:47.712Z,1009.2
2017-05-02T09:07:47.694Z,1009.23
2017-05-02T09:08:47.677Z,1009.23
2017-05-02T09:09:47.662Z,1009.24
2017-05-02T09:10:47.643Z,1009.24
2017-05-02T09:11:47.622Z,1009.23
2017-05-02T09:12:47.609Z,1009.2
2017-05-02T09:13:47.584Z,1009.2
2017-05-02T09:14:47.568Z,1009.25
2017-05-02T09:15:47.552Z,1009.25
2017-05-02T09:16:47.532Z,1009.21
2017-05-02T09:17:47.512Z,1009.22
2017-05-02T09:18:47.496Z,1009.22
2017-05-02T09:19:47.480Z,1009.27
2017-05-02T09:20:47.463Z,1009.27
2017-05-02T09:21:47.439Z,1009.22
2017-05-02T09:22:47.432Z,1009.24
2017-05-02T09:23:47.406Z,1009.2
2017-05-02T09:24:47.394Z,1009.21
2017-05-02T09:25:47.369Z,1009.25
2017-05-02T09:26:47.352Z,1009.23
2017-05-02T09:27:47.342Z,1009.21
2017-05-02T09:28:47.315Z,1009.21
2017-05-02T09:29:47.296Z,1009.17
2017-05-02T09:30:47.284Z,1009.17
2017-05-02T09:31:47.262Z,1009.18
2017-05-02T09:32:47.242Z,1009.21
2017-05-02T09:33:47.233Z,1009.2
2017-05-02T09:34:47.212Z,1009.19
2017-05-02T09:35:47.190Z,1009.22
2017-05-02T09:36:47.174Z,1009.22
2017-05-02T09:37:47.152Z,1009.18
2017-05-02T09:38:47.131Z,1009.19
2017-05-02T09:39:47.116Z,1009.15
2017-05-02T09:40:47.103Z,1009.12
2017-05-02T09:41:47.082Z,1009.14
2017-05-02T09:42:47.065Z,1009.15
2017-05-02T09:43:47.048Z,1009.11
2017-05-02T09:44:47.027Z,1009.12
2017-05-02T09:45:47.013Z,1009.11
2017-05-02T09:46:46.991Z,1009.1
2017-05-02T09:47:46.975Z,1009.1
2017-05-02T09:48:46.960Z,1009.14
2017-05-02T09:49:46.967Z,1009.06
2017-05-02T09:50:46.925Z,1009.06
2017-05-02T09:51:46.903Z,1009.03
2017-05-02T09:52:46.883Z,1009.04
2017-05-02T09:53:46.873Z,1009
2017-05-02T09:54:46.854Z,1009.04
2017-05-02T09:55:46.829Z,1009
2017-05-02T09:56:46.810Z,1009.02
2017-05-02T09:57:46.793Z,1008.97
2017-05-02T09:58:46.775Z,1008.98
2017-05-02T09:59:46.761Z,1008.97
2017-05-02T10:00:46.784Z,1008.97
2017-05-02T10:01:46.723Z,1008.95
2017-05-02T10:02:46.713Z,1008.99
2017-05-02T10:03:46.684Z,1008.96
2017-05-02T10:04:46.675Z,1008.97
2017-05-02T10:05:46.655Z,1008.97
2017-05-02T10:06:46.634Z,1008.97
2017-05-02T10:07:46.615Z,1008.95
2017-05-02T10:08:46.605Z,1008.94
2017-05-02T10:09:46.585Z,1008.96
2017-05-02T10:10:46.564Z,1008.97
2017-05-02T10:11:46.542Z,1008.94
2017-05-02T10:12:46.524Z,1008.92
2017-05-02T10:13:46.505Z,1008.89
2017-05-02T10:14:46.490Z,1008.87
2017-05-02T10:15:46.467Z,1008.85
2017-05-02T10:16:46.454Z,1008.84
2017-05-02T10:17:46.437Z,1008.85
2017-05-02T10:18:46.425Z,1008.84
2017-05-02T10:19:46.400Z,1008.84
2017-05-02T10:20:46.383Z,1008.79
2017-05-02T10:21:46.363Z,1008.79
2017-05-02T10:22:46.346Z,1008.77
2017-05-02T10:23:46.331Z,1008.78
2017-05-02T10:24:46.312Z,1008.79
2017-05-02T10:25:46.292Z,1008.77
2017-05-02T10:26:46.273Z,1008.81
2017-05-02T10:27:46.257Z,1008.81
2017-05-02T10:28:46.243Z,1008.83
2017-05-02T10:29:46.224Z,1008.83
2017-05-02T10:30:46.203Z,1008.9
2017-05-02T10:31:46.194Z,1008.88
2017-05-02T10:32:46.175Z,1008.88
2017-05-02T10:33:46.155Z,1008.91
2017-05-02T10:34:46.134Z,1008.92
2017-05-02T10:35:46.117Z,1008.89
2017-05-02T10:36:46.098Z,1008.95
2017-05-02T10:37:46.085Z,1008.97
2017-05-02T10:38:46.064Z,1008.96
2017-05-02T10:39:46.053Z,1009
2017-05-02T10:40:46.063Z,1009.05
2017-05-02T10:41:46.014Z,1009.06
2017-05-02T10:42:46.002Z,1009.08
2017-05-02T10:43:45.988Z,1009.07
2017-05-02T10:44:45.965Z,1009.09
2017-05-02T10:45:45.945Z,1009.07
2017-05-02T10:46:45.931Z,1009.07
2017-05-02T10:47:45.916Z,1009.04
2017-05-02T10:48:45.896Z,1009.04
2017-05-02T10:49:45.886Z,1009.02
2017-05-02T10:50:45.864Z,1009.03
2017-05-02T10:51:45.853Z,1008.97
2017-05-02T10:52:45.832Z,1009
2017-05-02T10:53:45.815Z,1009
2017-05-02T10:54:45.803Z,1008.96
2017-05-02T10:55:45.784Z,1008.96
2017-05-02T10:56:45.762Z,1008.97
2017-05-02T10:57:45.753Z,1008.94
2017-05-02T10:58:45.738Z,1008.87
2017-05-02T10:59:45.726Z,1008.93
2017-05-02T11:00:45.703Z,1008.91
2017-05-02T11:01:45.687Z,1008.92
2017-05-02T11:02:45.664Z,1008.93
2017-05-02T11:03:45.656Z,1008.96
2017-05-02T11:04:45.648Z,1008.92
2017-05-02T11:05:45.619Z,1008.92
2017-05-02T11:06:45.608Z,1009
2017-05-02T11:07:45.584Z,1008.96
2017-05-02T11:08:45.586Z,1008.97
2017-05-02T11:09:45.552Z,1008.95
2017-05-02T11:10:45.534Z,1008.97
2017-05-02T11:11:45.519Z,1008.94
2017-05-02T11:12:45.505Z,1008.95
2017-05-02T11:13:45.491Z,1008.93
2017-05-02T11:14:45.470Z,1008.92
2017-05-02T11:15:45.468Z,1008.94
2017-05-02T11:16:45.445Z,1008.95
2017-05-02T11:17:45.426Z,1008.94
2017-05-02T11:18:45.403Z,1008.94
2017-05-02T11:19:45.394Z,1008.96
2017-05-02T11:20:45.376Z,1008.94
2017-05-02T11:21:45.363Z,1008.96
2017-05-02T11:22:45.343Z,1009
2017-05-02T11:23:45.323Z,1008.98
2017-05-02T11:24:45.309Z,1009
2017-05-02T11:25:45.297Z,1009.02
2017-05-02T11:26:45.293Z,1008.97
2017-05-02T11:27:45.260Z,1008.94
2017-05-02T11:28:45.245Z,1008.95
2017-05-02T11:29:45.234Z,1008.94
2017-05-02T11:30:45.213Z,1008.92
2017-05-02T11:31:45.195Z,1008.96
2017-05-02T11:32:45.184Z,1008.95
2017-05-02T11:33:45.164Z,1008.96
2017-05-02T11:34:45.144Z,1008.98
2017-05-02T11:35:45.135Z,1008.95
2017-05-02T11:36:45.110Z,1008.93
2017-05-02T11:37:45.097Z,1009.01
2017-05-02T11:38:45.081Z,1009.02
2017-05-02T11:39:45.064Z,1009.05
2017-05-02T11:40:45.047Z,1009.05
2017-05-02T11:41:45.035Z,1009.02
2017-05-02T11:42:45.014Z,1008.99
2017-05-02T11:43:44.998Z,1008.98
2017-05-02T11:44:44.984Z,1008.93
2017-05-02T11:45:44.975Z,1008.94
2017-05-02T11:46:44.964Z,1008.92
2017-05-02T11:47:44.934Z,1008.95
2017-05-02T11:48:44.923Z,1008.94
2017-05-02T11:49:44.900Z,1008.94
2017-05-02T11:50:44.886Z,1008.91
2017-05-02T11:51:44.870Z,1008.88
2017-05-02T11:52:44.855Z,1008.97
2017-05-02T11:53:44.844Z,1008.89
2017-05-02T11:54:44.824Z,1008.91
2017-05-02T11:55:44.804Z,1008.92
2017-05-02T11:56:44.791Z,1008.92
2017-05-02T11:57:44.774Z,1008.89
2017-05-02T11:58:44.764Z,1008.96
2017-05-02T11:59:44.744Z,1008.94
2017-05-02T12:00:44.723Z,1008.9
2017-05-02T12:01:44.714Z,1008.86
2017-05-02T12:02:44.693Z,1008.91
2017-05-02T12:03:44.688Z,1008.92
2017-05-02T12:04:44.668Z,1008.93
2017-05-02T12:05:44.646Z,1008.97
2017-05-02T12:06:44.632Z,1008.93
2017-05-02T12:07:44.621Z,1008.89
2017-05-02T12:08:44.600Z,1008.94